createdAt,value
2023-05-16T00:00:13.071Z,0.00
2023-05-16T00:01:13.092Z,0.00
2023-05-16T00:02:13.163Z,0.00
2023-05-16T00:03:13.111Z,0.00
2023-05-16T00:04:13.243Z,0.00
2023-05-16T00:05:13.061Z,0.00
2023-05-16T00:06:13.063Z,0.00
2023-05-16T00:07:13.046Z,0.00
2023-05-16T00:08:13.071Z,0.00
2023-05-16T00:09:13.037Z,0.00
2023-05-16T00:10:13.036Z,0.00
2023-05-16T00:11:13.057Z,0.00
2023-05-16T00:12:13.034Z,0.00
2023-05-16T00:13:13.028Z,0.00
2023-05-16T00:14:13.032Z,0.00
2023-05-16T00:15:13.031Z,0.00
2023-05-16T00:16:13.082Z,0.00
2023-05-16T00:17:13.117Z,0.00
2023-05-16T00:18:13.030Z,0.00
2023-05-16T00:19:13.084Z,0.00
2023-05-16T00:20:13.009Z,0.00
2023-05-16T00:21:13.203Z,0.00
2023-05-16T00:22:12.997Z,0.00
2023-05-16T00:23:12.998Z,0.00
2023-05-16T00:24:13.008Z,0.00
2023-05-16T00:25:12.989Z,0.00
2023-05-16T00:26:12.998Z,0.00
2023-05-16T00:27:13.015Z,0.00
2023-05-16T00:28:12.980Z,0.00
2023-05-16T00:29:12.982Z,0.00
2023-05-16T00:30:12.986Z,0.00
2023-05-16T00:31:12.971Z,0.00
2023-05-16T00:32:13.112Z,0.00
2023-05-16T00:33:13.022Z,0.00
2023-05-16T00:34:12.998Z,0.00
2023-05-16T00:35:12.962Z,0.00
2023-05-16T00:36:12.958Z,0.00
2023-05-16T00:37:12.948Z,0.00
2023-05-16T00:38:12.948Z,0.00
2023-05-16T00:39:12.946Z,0.00
2023-05-16T00:40:12.944Z,0.00
2023-05-16T00:41:12.942Z,0.00
2023-05-16T00:42:12.934Z,0.00
2023-05-16T00:43:12.951Z,0.00
2023-05-16T00:44:12.944Z,0.00
2023-05-16T00:45:12.923Z,0.00
2023-05-16T00:46:12.940Z,0.00
2023-05-16T00:47:12.916Z,0.00
2023-05-16T00:48:12.983Z,0.00
2023-05-16T00:49:12.915Z,0.00
2023-05-16T00:50:12.913Z,0.00
2023-05-16T00:51:12.915Z,0.00
2023-05-16T00:52:12.906Z,0.00
2023-05-16T00:53:12.900Z,0.00
2023-05-16T00:54:12.897Z,0.00
2023-05-16T00:55:12.890Z,0.00
2023-05-16T00:56:12.886Z,0.00
2023-05-16T00:57:12.880Z,0.00
2023-05-16T00:58:12.880Z,0.00
2023-05-16T00:59:12.891Z,0.00
2023-05-16T01:00:12.878Z,0.00
2023-05-16T01:01:12.882Z,0.00
2023-05-16T01:02:12.885Z,0.00
2023-05-16T01:03:13.019Z,0.00
2023-05-16T01:04:12.857Z,0.00
2023-05-16T01:05:12.853Z,0.00
2023-05-16T01:06:12.847Z,0.00
2023-05-16T01:07:12.847Z,0.00
2023-05-16T01:08:12.839Z,0.00
2023-05-16T01:09:12.836Z,0.00
2023-05-16T01:10:12.832Z,0.00
2023-05-16T01:11:12.829Z,0.00
2023-05-16T01:12:12.826Z,0.00
2023-05-16T01:13:12.821Z,0.00
2023-05-16T01:14:12.818Z,0.00
2023-05-16T01:15:13.007Z,0.00
2023-05-16T01:16:12.835Z,0.00
2023-05-16T01:17:12.820Z,0.00
2023-05-16T01:18:12.870Z,0.00
2023-05-16T01:19:12.923Z,0.00
2023-05-16T01:20:12.793Z,0.00
2023-05-16T01:21:12.785Z,0.00
2023-05-16T01:22:12.785Z,0.00
2023-05-16T01:23:12.790Z,0.00
2023-05-16T01:24:12.775Z,0.00
2023-05-16T01:25:12.770Z,0.00
2023-05-16T01:26:13.134Z,0.00
2023-05-16T01:27:12.766Z,0.00
2023-05-16T01:28:12.769Z,0.00
2023-05-16T01:29:12.756Z,0.00
2023-05-16T01:30:12.752Z,0.00
2023-05-16T01:31:12.850Z,0.00
2023-05-16T01:32:12.746Z,0.00
2023-05-16T01:33:12.808Z,0.00
2023-05-16T01:34:12.735Z,0.00
2023-05-16T01:35:12.731Z,0.00
2023-05-16T01:36:12.726Z,0.00
2023-05-16T01:37:12.722Z,0.00
2023-05-16T01:38:12.721Z,0.00
2023-05-16T01:39:12.730Z,0.00
2023-05-16T01:40:12.729Z,0.00
2023-05-16T01:41:12.705Z,0.00
2023-05-16T01:42:12.719Z,0.00
2023-05-16T01:43:12.697Z,0.00
2023-05-16T01:44:12.698Z,0.00
2023-05-16T01:45:12.692Z,0.00
2023-05-16T01:46:12.742Z,0.00
2023-05-16T01:47:12.722Z,0.00
2023-05-16T01:48:12.700Z,0.00
2023-05-16T01:49:12.683Z,0.00
2023-05-16T01:50:12.675Z,0.00
2023-05-16T01:51:12.670Z,0.00
2023-05-16T01:52:12.664Z,0.00
2023-05-16T01:53:12.659Z,0.00
2023-05-16T01:54:12.654Z,0.00
2023-05-16T01:55:12.647Z,0.00
2023-05-16T01:56:12.646Z,0.00
2023-05-16T01:57:12.644Z,0.00
2023-05-16T01:58:12.634Z,0.00
2023-05-16T01:59:12.634Z,0.00
2023-05-16T02:00:12.632Z,0.00
2023-05-16T02:01:12.656Z,0.00
2023-05-16T02:02:12.624Z,0.00
2023-05-16T02:03:12.718Z,0.00
2023-05-16T02:04:12.776Z,0.00
2023-05-16T02:05:12.606Z,0.00
2023-05-16T02:06:12.610Z,0.00
2023-05-16T02:07:12.615Z,0.00
2023-05-16T02:08:12.600Z,0.00
2023-05-16T02:09:12.597Z,0.00
2023-05-16T02:10:12.602Z,0.00
2023-05-16T02:11:12.581Z,0.00
2023-05-16T02:12:12.581Z,0.00
2023-05-16T02:13:12.573Z,0.00
2023-05-16T02:14:12.581Z,0.00
2023-05-16T02:15:12.570Z,0.00
2023-05-16T02:16:12.612Z,0.00
2023-05-16T02:17:12.635Z,0.00
2023-05-16T02:18:12.580Z,0.00
2023-05-16T02:19:12.633Z,0.00
2023-05-16T02:20:12.546Z,0.00
2023-05-16T02:21:12.539Z,0.00
2023-05-16T02:22:12.542Z,0.00
2023-05-16T02:23:12.532Z,0.00
2023-05-16T02:24:12.533Z,0.00
2023-05-16T02:25:12.524Z,0.00
2023-05-16T02:26:12.530Z,0.00
2023-05-16T02:27:12.516Z,0.00
2023-05-16T02:28:12.526Z,0.00
2023-05-16T02:29:12.516Z,0.00
2023-05-16T02:30:12.587Z,0.00
2023-05-16T02:31:12.964Z,0.00
2023-05-16T02:32:12.513Z,0.00
2023-05-16T02:33:12.579Z,0.00
2023-05-16T02:34:12.492Z,0.00
2023-05-16T02:35:12.516Z,0.00
2023-05-16T02:36:12.482Z,0.00
2023-05-16T02:37:13.411Z,0.00
2023-05-16T02:38:12.501Z,0.00
2023-05-16T02:39:12.464Z,0.00
2023-05-16T02:40:12.470Z,0.00
2023-05-16T02:41:12.467Z,0.00
2023-05-16T02:42:12.461Z,0.00
2023-05-16T02:43:12.455Z,0.00
2023-05-16T02:44:12.458Z,0.00
2023-05-16T02:45:12.437Z,0.00
2023-05-16T02:46:12.462Z,0.00
2023-05-16T02:47:12.435Z,0.00
2023-05-16T02:48:12.526Z,0.00
2023-05-16T02:49:12.419Z,0.00
2023-05-16T02:50:12.417Z,0.00
2023-05-16T02:51:12.441Z,0.00
2023-05-16T02:52:12.409Z,0.00
2023-05-16T02:53:12.408Z,0.00
2023-05-16T02:54:12.407Z,0.00
2023-05-16T02:56:12.392Z,0.00
2023-05-16T02:57:12.402Z,0.00
2023-05-16T02:58:12.383Z,0.00
2023-05-16T02:59:12.378Z,0.00
2023-05-16T03:00:12.385Z,0.00
2023-05-16T03:01:12.425Z,0.00
2023-05-16T03:02:12.685Z,0.00
2023-05-16T03:03:12.431Z,0.00
2023-05-16T03:04:12.504Z,0.00
2023-05-16T03:05:12.365Z,0.00
2023-05-16T03:06:12.353Z,0.00
2023-05-16T03:07:12.377Z,0.00
2023-05-16T03:08:12.349Z,0.00
2023-05-16T03:09:12.337Z,0.00
2023-05-16T03:10:12.330Z,0.00
2023-05-16T03:11:12.342Z,0.00
2023-05-16T03:12:12.324Z,0.00
2023-05-16T03:13:12.316Z,0.00
2023-05-16T03:14:12.311Z,0.00
2023-05-16T03:15:12.306Z,0.00
2023-05-16T03:16:12.340Z,0.00
2023-05-16T03:17:12.338Z,0.00
2023-05-16T03:18:12.359Z,0.00
2023-05-16T03:19:12.322Z,0.00
2023-05-16T03:20:12.293Z,0.00
2023-05-16T03:21:12.294Z,0.00
2023-05-16T03:22:12.282Z,0.00
2023-05-16T03:23:12.306Z,0.00
2023-05-16T03:24:12.298Z,0.00
2023-05-16T03:25:12.265Z,0.00
2023-05-16T03:26:12.278Z,0.00
2023-05-16T03:27:12.287Z,0.00
2023-05-16T03:28:14.070Z,0.00
2023-05-16T03:29:12.249Z,0.00
2023-05-16T03:30:12.242Z,0.00
2023-05-16T03:31:12.614Z,0.00
2023-05-16T03:32:12.343Z,0.00
2023-05-16T03:33:12.229Z,0.00
2023-05-16T03:34:12.241Z,0.00
2023-05-16T03:35:12.218Z,0.00
2023-05-16T03:36:12.228Z,4.00
2023-05-16T03:37:12.211Z,0.00
2023-05-16T03:38:12.210Z,0.00
2023-05-16T03:39:12.247Z,0.00
2023-05-16T03:40:12.231Z,0.00
2023-05-16T03:41:12.198Z,0.00
2023-05-16T03:42:12.210Z,0.00
2023-05-16T03:43:12.193Z,0.00
2023-05-16T03:44:12.186Z,0.00
2023-05-16T03:45:12.177Z,4.00
2023-05-16T03:46:12.202Z,0.00
2023-05-16T03:47:12.174Z,0.00
2023-05-16T03:48:12.261Z,0.00
2023-05-16T03:49:12.171Z,4.00
2023-05-16T03:50:12.198Z,0.00
2023-05-16T03:51:12.174Z,4.00
2023-05-16T03:52:12.146Z,4.00
2023-05-16T03:53:12.154Z,4.00
2023-05-16T03:54:12.147Z,4.00
2023-05-16T03:55:12.155Z,4.00
2023-05-16T03:56:12.146Z,4.00
2023-05-16T03:57:12.126Z,4.00
2023-05-16T03:58:12.149Z,0.00
2023-05-16T03:59:12.111Z,4.00
2023-05-16T04:00:12.133Z,4.00
2023-05-16T04:01:12.128Z,0.00
2023-05-16T04:02:12.265Z,4.00
2023-05-16T04:03:12.114Z,4.00
2023-05-16T04:04:12.101Z,4.00
2023-05-16T04:05:12.141Z,4.00
2023-05-16T04:06:12.201Z,8.00
2023-05-16T04:07:12.090Z,8.00
2023-05-16T04:08:12.083Z,8.00
2023-05-16T04:09:12.077Z,8.00
2023-05-16T04:10:12.070Z,8.00
2023-05-16T04:11:12.095Z,8.00
2023-05-16T04:12:12.064Z,8.00
2023-05-16T04:13:12.096Z,8.00
2023-05-16T04:14:12.075Z,8.00
2023-05-16T04:15:12.041Z,8.00
2023-05-16T04:16:12.039Z,12.00
2023-05-16T04:17:12.114Z,12.00
2023-05-16T04:18:12.069Z,12.00
2023-05-16T04:19:12.048Z,12.00
2023-05-16T04:20:12.022Z,8.00
2023-05-16T04:21:12.015Z,12.00
2023-05-16T04:22:12.013Z,12.00
2023-05-16T04:23:12.028Z,12.00
2023-05-16T04:24:12.008Z,12.00
2023-05-16T04:25:12.002Z,12.00
2023-05-16T04:26:12.011Z,12.00
2023-05-16T04:27:12.007Z,8.00
2023-05-16T04:28:11.993Z,8.00
2023-05-16T04:29:11.993Z,8.00
2023-05-16T04:30:11.981Z,12.00
2023-05-16T04:31:12.021Z,16.00
2023-05-16T04:32:11.973Z,20.00
2023-05-16T04:33:12.035Z,16.00
2023-05-16T04:34:11.961Z,16.00
2023-05-16T04:35:11.960Z,20.00
2023-05-16T04:36:12.162Z,24.00
2023-05-16T04:37:11.944Z,24.00
2023-05-16T04:38:11.949Z,24.00
2023-05-16T04:39:11.942Z,36.00
2023-05-16T04:40:11.937Z,32.00
2023-05-16T04:41:11.925Z,36.00
2023-05-16T04:42:11.928Z,36.00
2023-05-16T04:43:11.944Z,36.00
2023-05-16T04:44:11.914Z,52.00
2023-05-16T04:45:11.914Z,44.00
2023-05-16T04:46:11.958Z,56.00
2023-05-16T04:47:11.901Z,44.00
2023-05-16T04:48:11.969Z,36.00
2023-05-16T04:49:11.898Z,32.00
2023-05-16T04:50:11.893Z,36.00
2023-05-16T04:51:11.890Z,36.00
2023-05-16T04:52:11.889Z,44.00
2023-05-16T04:53:11.874Z,52.00
2023-05-16T04:54:11.869Z,56.00
2023-05-16T04:55:11.862Z,56.00
2023-05-16T04:56:11.859Z,52.00
2023-05-16T04:57:11.854Z,48.00
2023-05-16T04:58:11.848Z,44.00
2023-05-16T04:59:11.958Z,48.00
2023-05-16T05:00:11.858Z,56.00
2023-05-16T05:01:11.857Z,52.00
2023-05-16T05:02:11.859Z,48.00
2023-05-16T05:03:11.885Z,52.00
2023-05-16T05:04:11.834Z,60.00
2023-05-16T05:05:11.846Z,64.00
2023-05-16T05:06:11.815Z,60.00
2023-05-16T05:07:11.808Z,64.00
2023-05-16T05:08:11.802Z,88.00
2023-05-16T05:09:11.797Z,72.00
2023-05-16T05:10:11.789Z,84.00
2023-05-16T05:11:11.789Z,104.00
2023-05-16T05:12:11.783Z,100.00
2023-05-16T05:13:11.778Z,112.00
2023-05-16T05:14:11.772Z,112.00
2023-05-16T05:15:11.790Z,128.00
2023-05-16T05:16:11.778Z,104.00
2023-05-16T05:17:11.790Z,100.00
2023-05-16T05:18:11.829Z,92.00
2023-05-16T05:19:11.776Z,108.00
2023-05-16T05:20:11.758Z,96.00
2023-05-16T05:21:11.747Z,76.00
2023-05-16T05:22:11.737Z,76.00
2023-05-16T05:23:11.733Z,80.00
2023-05-16T05:24:11.736Z,88.00
2023-05-16T05:25:11.730Z,76.00
2023-05-16T05:26:11.713Z,88.00
2023-05-16T05:27:11.708Z,76.00
2023-05-16T05:28:11.706Z,88.00
2023-05-16T05:29:11.702Z,72.00
2023-05-16T05:30:11.695Z,76.00
2023-05-16T05:31:11.753Z,84.00
2023-05-16T05:32:11.799Z,84.00
2023-05-16T05:33:11.803Z,92.00
2023-05-16T05:34:11.681Z,100.00
2023-05-16T05:35:11.680Z,84.00
2023-05-16T05:36:11.672Z,88.00
2023-05-16T05:37:11.673Z,96.00
2023-05-16T05:38:11.660Z,104.00
2023-05-16T05:39:11.655Z,104.00
2023-05-16T05:40:11.650Z,132.00
2023-05-16T05:41:12.051Z,108.00
2023-05-16T05:42:11.636Z,112.00
2023-05-16T05:43:11.632Z,136.00
2023-05-16T05:44:11.627Z,152.00
2023-05-16T05:45:11.624Z,148.00
2023-05-16T05:46:11.649Z,144.00
2023-05-16T05:47:11.649Z,136.00
2023-05-16T05:48:11.643Z,136.00
2023-05-16T05:49:11.603Z,128.00
2023-05-16T05:50:11.602Z,148.00
2023-05-16T05:51:11.604Z,136.00
2023-05-16T05:52:11.589Z,144.00
2023-05-16T05:53:11.585Z,128.00
2023-05-16T05:54:11.587Z,128.00
2023-05-16T05:55:11.584Z,120.00
2023-05-16T05:56:11.572Z,128.00
2023-05-16T05:57:11.573Z,128.00
2023-05-16T05:58:11.570Z,124.00
2023-05-16T05:59:11.561Z,128.00
2023-05-16T06:00:11.554Z,140.00
2023-05-16T06:01:11.560Z,140.00
2023-05-16T06:02:11.570Z,168.00
2023-05-16T06:03:11.659Z,136.00
2023-05-16T06:04:11.536Z,144.00
2023-05-16T06:05:11.711Z,148.00
2023-05-16T06:06:11.524Z,124.00
2023-05-16T06:07:11.525Z,152.00
2023-05-16T06:08:11.530Z,144.00
2023-05-16T06:09:11.514Z,128.00
2023-05-16T06:10:11.516Z,144.00
2023-05-16T06:11:11.515Z,136.00
2023-05-16T06:12:11.502Z,140.00
2023-05-16T06:13:11.496Z,136.00
2023-05-16T06:14:11.507Z,136.00
2023-05-16T06:15:11.491Z,124.00
2023-05-16T06:16:11.489Z,132.00
2023-05-16T06:17:11.535Z,144.00
2023-05-16T06:18:11.510Z,144.00
2023-05-16T06:19:11.541Z,160.00
2023-05-16T06:20:11.464Z,144.00
2023-05-16T06:21:11.466Z,172.00
2023-05-16T06:22:11.455Z,144.00
2023-05-16T06:23:11.449Z,164.00
2023-05-16T06:24:11.442Z,160.00
2023-05-16T06:25:11.451Z,168.00
2023-05-16T06:26:11.433Z,160.00
2023-05-16T06:27:11.434Z,160.00
2023-05-16T06:28:11.438Z,164.00
2023-05-16T06:29:11.421Z,228.00
2023-05-16T06:30:11.417Z,192.00
2023-05-16T06:31:11.442Z,148.00
2023-05-16T06:32:13.365Z,164.00
2023-05-16T06:33:11.496Z,228.00
2023-05-16T06:34:11.412Z,216.00
2023-05-16T06:35:11.421Z,264.00
2023-05-16T06:36:11.393Z,192.00
2023-05-16T06:37:11.384Z,236.00
2023-05-16T06:38:11.382Z,264.00
2023-05-16T06:39:11.378Z,224.00
2023-05-16T06:40:11.376Z,312.00
2023-05-16T06:41:11.776Z,248.00
2023-05-16T06:42:11.366Z,320.00
2023-05-16T06:43:11.366Z,232.00
2023-05-16T06:44:11.366Z,152.00
2023-05-16T06:45:11.352Z,208.00
2023-05-16T06:46:11.367Z,132.00
2023-05-16T06:47:11.349Z,200.00
2023-05-16T06:48:11.387Z,236.00
2023-05-16T06:49:11.333Z,300.00
2023-05-16T06:50:11.336Z,272.00
2023-05-16T06:51:11.423Z,248.00
2023-05-16T06:52:11.323Z,256.00
2023-05-16T06:53:11.316Z,240.00
2023-05-16T06:54:11.313Z,504.00
2023-05-16T06:55:11.308Z,364.00
2023-05-16T06:56:11.308Z,384.00
2023-05-16T06:57:11.304Z,352.00
2023-05-16T06:58:11.289Z,368.00
2023-05-16T06:59:11.289Z,320.00
2023-05-16T07:00:11.283Z,192.00
2023-05-16T07:01:11.290Z,268.00
2023-05-16T07:02:11.277Z,364.00
2023-05-16T07:03:11.403Z,224.00
2023-05-16T07:04:11.321Z,412.00
2023-05-16T07:05:11.266Z,284.00
2023-05-16T07:06:11.264Z,236.00
2023-05-16T07:07:11.313Z,232.00
2023-05-16T07:08:11.268Z,348.00
2023-05-16T07:09:11.255Z,228.00
2023-05-16T07:10:11.243Z,272.00
2023-05-16T07:11:11.239Z,268.00
2023-05-16T07:12:11.231Z,564.00
2023-05-16T07:13:11.230Z,584.00
2023-05-16T07:14:11.226Z,248.00
2023-05-16T07:15:11.220Z,188.00
2023-05-16T07:16:11.261Z,88.00
2023-05-16T07:17:11.298Z,172.00
2023-05-16T07:18:11.261Z,124.00
2023-05-16T07:19:11.227Z,180.00
2023-05-16T07:20:11.196Z,148.00
2023-05-16T07:21:11.193Z,108.00
2023-05-16T07:22:11.188Z,120.00
2023-05-16T07:23:11.307Z,108.00
2023-05-16T07:24:11.180Z,132.00
2023-05-16T07:25:11.177Z,124.00
2023-05-16T07:26:11.175Z,108.00
2023-05-16T07:27:11.175Z,84.00
2023-05-16T07:28:11.167Z,96.00
2023-05-16T07:29:11.166Z,80.00
2023-05-16T07:30:11.155Z,84.00
2023-05-16T07:31:11.195Z,84.00
2023-05-16T07:32:11.316Z,104.00
2023-05-16T07:33:11.182Z,180.00
2023-05-16T07:34:11.150Z,332.00
2023-05-16T07:35:11.140Z,120.00
2023-05-16T07:36:16.720Z,176.00
2023-05-16T07:37:11.122Z,112.00
2023-05-16T07:38:11.117Z,264.00
2023-05-16T07:39:11.160Z,168.00
2023-05-16T07:40:11.117Z,392.00
2023-05-16T07:41:11.109Z,468.00
2023-05-16T07:42:11.119Z,472.00
2023-05-16T07:43:11.110Z,564.00
2023-05-16T07:44:11.106Z,544.00
2023-05-16T07:45:11.090Z,628.00
2023-05-16T07:46:11.384Z,440.00
2023-05-16T07:47:11.085Z,464.00
2023-05-16T07:48:11.107Z,428.00
2023-05-16T07:49:11.086Z,416.00
2023-05-16T07:50:11.084Z,280.00
2023-05-16T07:51:11.062Z,736.00
2023-05-16T07:52:11.087Z,528.00
2023-05-16T07:53:11.056Z,612.00
2023-05-16T07:54:11.045Z,712.00
2023-05-16T07:55:11.092Z,632.00
2023-05-16T07:56:11.042Z,572.00
2023-05-16T07:57:11.038Z,744.00
2023-05-16T07:58:11.033Z,728.00
2023-05-16T07:59:11.082Z,700.00
2023-05-16T08:00:11.023Z,728.00
2023-05-16T08:01:11.012Z,908.00
2023-05-16T08:02:11.069Z,784.00
2023-05-16T08:03:11.194Z,2368.00
2023-05-16T08:04:10.997Z,736.00
2023-05-16T08:05:11.078Z,720.00
2023-05-16T08:06:11.081Z,932.00
2023-05-16T08:07:10.994Z,1356.00
2023-05-16T08:08:10.999Z,788.00
2023-05-16T08:09:10.985Z,2032.00
2023-05-16T08:10:13.353Z,1360.00
2023-05-16T08:11:11.033Z,1364.00
2023-05-16T08:12:10.964Z,1260.00
2023-05-16T08:13:10.965Z,3268.00
2023-05-16T08:14:10.963Z,28.00
2023-05-16T08:15:10.961Z,0.00
2023-05-16T08:16:10.956Z,1752.00
2023-05-16T08:17:10.963Z,3132.00
2023-05-16T08:18:10.997Z,13632.00
2023-05-16T08:19:10.997Z,14464.00
2023-05-16T08:20:10.947Z,12832.00
2023-05-16T08:21:10.966Z,12220.00
2023-05-16T08:22:10.941Z,16076.00
2023-05-16T08:23:10.940Z,13712.00
2023-05-16T08:24:10.936Z,6532.00
2023-05-16T08:25:10.932Z,7740.00
2023-05-16T08:26:10.927Z,5676.00
2023-05-16T08:27:10.989Z,5692.00
2023-05-16T08:28:10.923Z,6520.00
2023-05-16T08:29:10.913Z,3932.00
2023-05-16T08:30:10.910Z,3340.00
2023-05-16T08:31:10.988Z,3596.00
2023-05-16T08:32:10.905Z,3152.00
2023-05-16T08:33:11.034Z,3816.00
2023-05-16T08:34:10.915Z,4756.00
2023-05-16T08:35:11.003Z,8648.00
2023-05-16T08:36:10.905Z,3872.00
2023-05-16T08:37:10.901Z,5596.00
2023-05-16T08:38:10.888Z,12176.00
2023-05-16T08:39:10.888Z,2852.00
2023-05-16T08:40:10.933Z,1920.00
2023-05-16T08:41:10.895Z,1872.00
2023-05-16T08:42:11.090Z,2060.00
2023-05-16T08:43:10.957Z,1232.00
2023-05-16T08:44:10.873Z,2108.00
2023-05-16T08:45:10.869Z,2248.00
2023-05-16T08:46:10.879Z,2916.00
2023-05-16T08:47:10.955Z,5944.00
2023-05-16T08:48:10.937Z,4592.00
2023-05-16T08:49:10.873Z,25664.00
2023-05-16T08:50:10.865Z,35168.00
2023-05-16T08:51:10.860Z,21376.00
2023-05-16T08:52:10.848Z,9100.00
2023-05-16T08:53:10.856Z,4016.00
2023-05-16T08:54:10.842Z,844.00
2023-05-16T08:55:11.848Z,1044.00
2023-05-16T08:56:10.841Z,884.00
2023-05-16T08:57:10.844Z,720.00
2023-05-16T08:58:10.831Z,152.00
2023-05-16T08:59:10.879Z,208.00
2023-05-16T09:00:11.032Z,148.00
2023-05-16T09:01:10.859Z,344.00
2023-05-16T09:02:10.817Z,188.00
2023-05-16T09:03:10.826Z,412.00
2023-05-16T09:04:10.858Z,288.00
2023-05-16T09:05:10.805Z,396.00
2023-05-16T09:06:10.807Z,232.00
2023-05-16T09:07:10.798Z,124.00
2023-05-16T09:08:10.801Z,124.00
2023-05-16T09:09:10.792Z,84.00
2023-05-16T09:10:10.827Z,84.00
2023-05-16T09:11:10.787Z,108.00
2023-05-16T09:12:10.785Z,192.00
2023-05-16T09:13:10.782Z,100.00
2023-05-16T09:14:10.810Z,88.00
2023-05-16T09:15:10.989Z,84.00
2023-05-16T09:16:10.770Z,100.00
2023-05-16T09:17:12.475Z,116.00
2023-05-16T09:18:10.784Z,96.00
2023-05-16T09:19:10.782Z,148.00
2023-05-16T09:20:10.804Z,140.00
2023-05-16T09:21:10.754Z,120.00
2023-05-16T09:22:10.751Z,116.00
2023-05-16T09:23:10.746Z,124.00
2023-05-16T09:24:10.747Z,92.00
2023-05-16T09:25:21.791Z,100.00
2023-05-16T09:26:10.737Z,92.00
2023-05-16T09:27:10.732Z,112.00
2023-05-16T09:28:10.728Z,168.00
2023-05-16T09:29:10.726Z,148.00
2023-05-16T09:30:10.720Z,148.00
2023-05-16T09:31:10.829Z,120.00
2023-05-16T09:32:10.732Z,132.00
2023-05-16T09:33:10.744Z,208.00
2023-05-16T09:34:10.706Z,80.00
2023-05-16T09:35:10.704Z,80.00
2023-05-16T09:36:10.709Z,160.00
2023-05-16T09:37:10.706Z,140.00
2023-05-16T09:38:10.696Z,136.00
2023-05-16T09:39:10.687Z,124.00
2023-05-16T09:40:10.694Z,164.00
2023-05-16T09:41:10.682Z,152.00
2023-05-16T09:42:10.886Z,188.00
2023-05-16T09:43:10.683Z,156.00
2023-05-16T09:44:10.675Z,160.00
2023-05-16T09:45:10.687Z,148.00
2023-05-16T09:46:10.718Z,132.00
2023-05-16T09:47:10.725Z,132.00
2023-05-16T09:48:10.719Z,108.00
2023-05-16T09:49:10.648Z,124.00
2023-05-16T09:50:10.659Z,160.00
2023-05-16T09:51:10.653Z,164.00
2023-05-16T09:52:10.644Z,196.00
2023-05-16T09:53:10.636Z,160.00
2023-05-16T09:54:10.649Z,420.00
2023-05-16T09:55:10.639Z,164.00
2023-05-16T09:56:10.625Z,260.00
2023-05-16T09:57:10.628Z,252.00
2023-05-16T09:58:10.655Z,168.00
2023-05-16T09:59:10.616Z,188.00
2023-05-16T10:00:10.617Z,148.00
2023-05-16T10:01:10.618Z,148.00
2023-05-16T10:02:10.716Z,140.00
2023-05-16T10:03:10.749Z,140.00
2023-05-16T10:04:10.701Z,124.00
2023-05-16T10:05:10.589Z,144.00
2023-05-16T10:06:10.604Z,192.00
2023-05-16T10:07:10.592Z,232.00
2023-05-16T10:08:10.589Z,148.00
2023-05-16T10:09:10.590Z,216.00
2023-05-16T10:10:10.581Z,168.00
2023-05-16T10:11:10.575Z,168.00
2023-05-16T10:12:10.567Z,220.00
2023-05-16T10:13:10.574Z,112.00
2023-05-16T10:14:10.562Z,144.00
2023-05-16T10:15:10.560Z,148.00
2023-05-16T10:16:10.577Z,128.00
2023-05-16T10:17:10.547Z,200.00
2023-05-16T10:18:10.573Z,244.00
2023-05-16T10:19:10.717Z,220.00
2023-05-16T10:20:10.548Z,216.00
2023-05-16T10:21:11.627Z,192.00
2023-05-16T10:22:10.534Z,212.00
2023-05-16T10:23:10.527Z,176.00
2023-05-16T10:24:10.524Z,176.00
2023-05-16T10:25:10.538Z,240.00
2023-05-16T10:26:10.516Z,196.00
2023-05-16T10:27:10.510Z,212.00
2023-05-16T10:28:10.515Z,220.00
2023-05-16T10:29:10.511Z,208.00
2023-05-16T10:30:10.504Z,248.00
2023-05-16T10:31:10.499Z,156.00
2023-05-16T10:32:10.563Z,140.00
2023-05-16T10:33:10.526Z,136.00
2023-05-16T10:34:10.492Z,128.00
2023-05-16T10:35:10.549Z,132.00
2023-05-16T10:36:10.483Z,132.00
2023-05-16T10:37:10.484Z,172.00
2023-05-16T10:38:10.482Z,192.00
2023-05-16T10:39:10.472Z,156.00
2023-05-16T10:40:10.469Z,112.00
2023-05-16T10:41:10.460Z,144.00
2023-05-16T10:42:10.859Z,104.00
2023-05-16T10:43:10.456Z,132.00
2023-05-16T10:44:10.451Z,136.00
2023-05-16T10:45:10.443Z,140.00
2023-05-16T10:46:10.484Z,132.00
2023-05-16T10:47:10.444Z,224.00
2023-05-16T10:48:10.499Z,240.00
2023-05-16T10:49:10.437Z,208.00
2023-05-16T10:50:10.436Z,192.00
2023-05-16T10:51:10.492Z,156.00
2023-05-16T10:52:10.431Z,148.00
2023-05-16T10:53:10.425Z,104.00
2023-05-16T10:54:10.452Z,88.00
2023-05-16T10:55:10.415Z,68.00
2023-05-16T10:56:10.412Z,76.00
2023-05-16T10:57:10.403Z,60.00
2023-05-16T10:58:10.411Z,48.00
2023-05-16T10:59:10.411Z,36.00
2023-05-16T11:00:10.399Z,32.00
2023-05-16T11:01:10.419Z,36.00
2023-05-16T11:02:10.425Z,40.00
2023-05-16T11:03:10.472Z,48.00
2023-05-16T11:04:10.446Z,52.00
2023-05-16T11:05:10.379Z,48.00
2023-05-16T11:06:10.376Z,44.00
2023-05-16T11:07:10.451Z,44.00
2023-05-16T11:08:10.385Z,44.00
2023-05-16T11:09:10.574Z,44.00
2023-05-16T11:10:10.369Z,48.00
2023-05-16T11:11:10.360Z,64.00
2023-05-16T11:12:10.360Z,60.00
2023-05-16T11:13:10.377Z,68.00
2023-05-16T11:14:10.351Z,80.00
2023-05-16T11:15:10.347Z,100.00
2023-05-16T11:16:10.345Z,104.00
2023-05-16T11:17:10.398Z,132.00
2023-05-16T11:18:10.418Z,132.00
2023-05-16T11:19:10.374Z,112.00
2023-05-16T11:20:10.349Z,96.00
2023-05-16T11:21:10.325Z,96.00
2023-05-16T11:22:10.342Z,76.00
2023-05-16T11:23:10.413Z,96.00
2023-05-16T11:24:10.320Z,108.00
2023-05-16T11:25:10.312Z,100.00
2023-05-16T11:26:10.314Z,112.00
2023-05-16T11:27:10.308Z,100.00
2023-05-16T11:28:10.322Z,108.00
2023-05-16T11:29:10.313Z,108.00
2023-05-16T11:30:10.304Z,92.00
2023-05-16T11:31:10.323Z,124.00
2023-05-16T11:32:10.287Z,68.00
2023-05-16T11:33:10.347Z,92.00
2023-05-16T11:34:10.281Z,72.00
2023-05-16T11:35:12.209Z,84.00
2023-05-16T11:37:10.272Z,76.00
2023-05-16T11:38:10.270Z,116.00
2023-05-16T11:39:10.367Z,64.00
2023-05-16T11:40:10.268Z,64.00
2023-05-16T11:41:10.263Z,84.00
2023-05-16T11:42:10.605Z,76.00
2023-05-16T11:43:10.250Z,72.00
2023-05-16T11:44:10.258Z,100.00
2023-05-16T11:45:10.259Z,120.00
2023-05-16T11:46:10.255Z,112.00
2023-05-16T11:47:10.353Z,112.00
2023-05-16T11:48:12.829Z,124.00
2023-05-16T11:49:10.232Z,112.00
2023-05-16T11:50:10.236Z,100.00
2023-05-16T11:51:10.231Z,108.00
2023-05-16T11:52:10.231Z,108.00
2023-05-16T11:53:10.224Z,116.00
2023-05-16T11:54:10.234Z,172.00
2023-05-16T11:55:10.274Z,128.00
2023-05-16T11:56:10.223Z,116.00
2023-05-16T11:57:10.226Z,156.00
2023-05-16T11:58:10.340Z,132.00
2023-05-16T11:59:10.204Z,140.00
2023-05-16T12:00:10.202Z,124.00
2023-05-16T12:01:10.207Z,120.00
2023-05-16T12:02:10.201Z,108.00
2023-05-16T12:03:10.387Z,92.00
2023-05-16T12:04:10.344Z,80.00
2023-05-16T12:05:10.437Z,112.00
2023-05-16T12:06:10.180Z,104.00
2023-05-16T12:07:10.381Z,92.00
2023-05-16T12:08:10.178Z,88.00
2023-05-16T12:09:10.170Z,120.00
2023-05-16T12:10:10.177Z,92.00
2023-05-16T12:11:10.261Z,60.00
2023-05-16T12:12:10.161Z,48.00
2023-05-16T12:13:10.160Z,44.00
2023-05-16T12:14:10.158Z,44.00
2023-05-16T12:15:10.153Z,52.00
2023-05-16T12:16:10.175Z,44.00
2023-05-16T12:17:10.205Z,48.00
2023-05-16T12:18:10.174Z,68.00
2023-05-16T12:19:10.188Z,80.00
2023-05-16T12:20:10.138Z,156.00
2023-05-16T12:21:10.135Z,124.00
2023-05-16T12:22:10.132Z,132.00
2023-05-16T12:23:10.137Z,132.00
2023-05-16T12:24:10.138Z,128.00
2023-05-16T12:25:10.122Z,108.00
2023-05-16T12:26:10.119Z,116.00
2023-05-16T12:27:10.553Z,116.00
2023-05-16T12:28:10.122Z,100.00
2023-05-16T12:29:10.123Z,120.00
2023-05-16T12:30:10.110Z,124.00
2023-05-16T12:31:19.709Z,104.00
2023-05-16T12:32:10.179Z,96.00
2023-05-16T12:33:10.136Z,116.00
2023-05-16T12:34:10.108Z,108.00
2023-05-16T12:35:10.090Z,92.00
2023-05-16T12:36:10.098Z,148.00
2023-05-16T12:37:10.086Z,128.00
2023-05-16T12:38:10.086Z,92.00
2023-05-16T12:39:10.082Z,64.00
2023-05-16T12:40:10.125Z,56.00
2023-05-16T12:41:10.071Z,48.00
2023-05-16T12:42:10.073Z,48.00
2023-05-16T12:43:10.109Z,44.00
2023-05-16T12:44:10.073Z,44.00
2023-05-16T12:45:10.055Z,48.00
2023-05-16T12:46:10.102Z,44.00
2023-05-16T12:47:10.058Z,44.00
2023-05-16T12:48:10.101Z,40.00
2023-05-16T12:49:10.046Z,44.00